Time;durP1;ratioP1;P1;durP2;ratioP2;P2;SDS_P1;SDS_P2;PMS_P1;PMS_P2;Temp;Humidity;BMP_temperature;BMP_pressure;BME280_temperature;BME280_humidity;BME280_pressure;Samples;Min_cycle;Max_cycle;Signal;HPM_P1;HPM_P2
2023/09/05 00:02:17;;;;;;;;;;;;;;;;;;5134537;27;19919;-70
2023/09/05 00:04:44;;;;;;;;;;;;;;;;;;5133817;27;19930;-70
2023/09/05 00:07:10;;;;;;;;;;;;;;;;;;5117945;28;19972;-71
2023/09/05 00:09:36;;;;;;;;;;;;;;;;;;5125357;27;20259;-71
2023/09/05 00:12:02;;;;;;;;;;;;;;;;;;5135554;27;19941;-71
2023/09/05 00:14:28;;;;;;;;;;;;;;;;;;5131477;27;19923;-71
2023/09/05 00:16:54;;;;;;;;;;;;;;;;;;5134096;27;20343;-71
2023/09/05 00:19:20;;;;;;;;;;;;;;;;;;5134921;27;19969;-71
2023/09/05 00:21:46;;;;;;;;;;;;;;;;;;5132925;27;20375;-71
2023/09/05 00:24:12;;;;;;;;;;;;;;;;;;5135370;27;20264;-71
2023/09/05 00:26:39;;;;;;;;;;;;;;;;;;5128902;28;19967;-71
2023/09/05 00:29:05;;;;;;;;;;;;;;;;;;5122070;27;19925;-71
2023/09/05 00:31:32;;;;;;;;;;;;;;;;;;5122287;27;19919;-71
2023/09/05 00:33:58;;;;;;;;;;;;;;;;;;5127624;27;19970;-71
2023/09/05 00:36:26;;;;;;;;;;;;;;;;;;5106852;28;19950;-71
2023/09/05 00:38:51;;;;;;;;;;;;;;;;;;5100605;27;19919;-71
2023/09/05 00:41:19;;;;;;;;;;;;;;;;;;5133804;27;19923;-70
2023/09/05 00:43:48;;;;;;;;;;;;;;;;;;5133779;27;19926;-71
2023/09/05 00:46:14;;;;;;;;;;;;;;;;;;5132803;27;19926;-71
2023/09/05 00:48:42;;;;;;;;;;;;;;;;;;5130690;27;19923;-71
2023/09/05 00:51:09;;;;;;;;;;;;;;;;;;5134876;27;20013;-71
2023/09/05 00:53:35;;;;;;;;;;;;;;;;;;5101647;28;19952;-73
2023/09/05 00:56:01;;;;;;;;;;;;;;;;;;5122131;27;19946;-71
2023/09/05 00:58:27;;;;;;;;;;;;;;;;;;5133747;27;19926;-71
2023/09/05 01:00:53;;;;;;;;;;;;;;;;;;5105235;27;19962;-71
2023/09/05 01:03:19;;;;;;;;;;;;;;;;;;5124131;27;20334;-73
2023/09/05 01:05:45;;;;;;;;;;;;;;;;;;5132365;27;20010;-71
2023/09/05 01:08:11;;;;;;;;;;;;;;;;;;5118053;27;20356;-72
2023/09/05 01:10:37;;;;;;;;;;;;;;;;;;5133376;27;20352;-76
2023/09/05 01:13:03;;;;;;;;;;;;;;;;;;5133803;27;19919;-73
2023/09/05 01:15:29;;;;;;;;;;;;;;;;;;5127438;27;19925;-72
2023/09/05 01:17:57;;;;;;;;;;;;;;;;;;5134970;27;19920;-72
2023/09/05 01:20:23;;;;;;;;;;;;;;;;;;5117425;27;19943;-72
2023/09/05 01:22:49;;;;;;;;;;;;;;;;;;5127142;27;19923;-72
2023/09/05 01:25:15;;;;;;;;;;;;;;;;;;5138568;27;19919;-72
2023/09/05 01:27:41;;;;;;;;;;;;;;;;;;5135244;27;19927;-72
2023/09/05 01:30:08;;;;;;;;;;;;;;;;;;5135583;27;19919;-72
2023/09/05 01:32:34;;;;;;;;;;;;;;;;;;5121304;27;19919;-72
2023/09/05 01:34:59;;;;;;;;;;;;;;;;;;5119666;27;19945;-72
2023/09/05 01:37:25;;;;;;;;;;;;;;;;;;5137244;27;19925;-72
2023/09/05 01:39:51;;;;;;;;;;;;;;;;;;5137688;27;20356;-72
2023/09/05 01:42:17;;;;;;;;;;;;;;;;;;5135399;27;20371;-72
2023/09/05 01:44:43;;;;;;;;;;;;;;;;;;5119850;27;20348;-72
2023/09/05 01:47:09;;;;;;;;;;;;;;;;;;5132387;27;20325;-73
2023/09/05 01:49:35;;;;;;;;;;;;;;;;;;5135908;27;19945;-72
2023/09/05 01:52:01;;;;;;;;;;;;;;;;;;5134824;27;20132;-72
2023/09/05 01:54:28;;;;;;;;;;;;;;;;;;5116875;27;19974;-72
2023/09/05 01:56:53;;;;;;;;;;;;;;;;;;5122873;27;20371;-72
2023/09/05 01:59:20;;;;;;;;;;;;;;;;;;5121426;27;19964;-72
2023/09/05 02:01:46;;;;;;;;;;;;;;;;;;5131209;27;19962;-72
2023/09/05 02:04:12;;;;;;;;;;;;;;;;;;5135422;27;19976;-72
2023/09/05 02:06:38;;;;;;;;;;;;;;;;;;5126946;27;19974;-72
2023/09/05 02:09:03;;;;;;;;;;;;;;;;;;5136620;27;19926;-73
2023/09/05 02:11:29;;;;;;;;;;;;;;;;;;5136346;27;19923;-72
2023/09/05 02:13:55;;;;;;;;;;;;;;;;;;5134263;27;19974;-73
2023/09/05 02:16:24;;;;;;;;;;;;;;;;;;5116943;27;19919;-72
2023/09/05 02:18:50;;;;;;;;;;;;;;;;;;5115881;27;20360;-71
2023/09/05 02:21:16;;;;;;;;;;;;;;;;;;5108803;27;19925;-71
2023/09/05 02:23:42;;;;;;;;;;;;;;;;;;5135344;27;20325;-71
2023/09/05 02:26:08;;;;;;;;;;;;;;;;;;5136898;27;20118;-72
2023/09/05 02:28:34;;;;;;;;;;;;;;;;;;5109697;27;20360;-70
2023/09/05 02:31:00;;;;;;;;;;;;;;;;;;5126534;27;19919;-72
2023/09/05 02:33:29;;;;;;;;;;;;;;;;;;5118483;27;19926;-72
2023/09/05 02:35:55;;;;;;;;;;;;;;;;;;5112417;27;19927;-71
2023/09/05 02:38:21;;;;;;;;;;;;;;;;;;5122926;27;19919;-71
2023/09/05 02:40:47;;;;;;;;;;;;;;;;;;5136429;27;19919;-74
2023/09/05 02:43:13;;;;;;;;;;;;;;;;;;5130649;27;19968;-71
2023/09/05 02:45:39;;;;;;;;;;;;;;;;;;5134390;27;20360;-71
2023/09/05 02:48:05;;;;;;;;;;;;;;;;;;5117473;27;19926;-71
2023/09/05 02:50:31;;;;;;;;;;;;;;;;;;5115563;27;20009;-71
2023/09/05 02:52:57;;;;;;;;;;;;;;;;;;5115431;27;19968;-71
2023/09/05 02:55:23;;;;;;;;;;;;;;;;;;5116287;27;20376;-71
2023/09/05 02:57:49;;;;;;;;;;;;;;;;;;5130985;27;19923;-74
2023/09/05 03:00:19;;;;;;;;;;;;;;;;;;5131740;27;20089;-71
2023/09/05 03:02:45;;;;;;;;;;;;;;;;;;5117741;27;20018;-71
2023/09/05 03:05:11;;;;;;;;;;;;;;;;;;5115285;27;20009;-71
2023/09/05 03:07:37;;;;;;;;;;;;;;;;;;5136432;27;19919;-71
2023/09/05 03:10:03;;;;;;;;;;;;;;;;;;5134010;27;19926;-71
2023/09/05 03:12:29;;;;;;;;;;;;;;;;;;5115917;27;20388;-71
2023/09/05 03:14:55;;;;;;;;;;;;;;;;;;5132015;27;19926;-71
2023/09/05 03:17:21;;;;;;;;;;;;;;;;;;5099469;27;20002;-72
2023/09/05 03:19:47;;;;;;;;;;;;;;;;;;5115199;27;20374;-71
2023/09/05 03:22:13;;;;;;;;;;;;;;;;;;5106628;27;19958;-71
2023/09/05 03:24:39;;;;;;;;;;;;;;;;;;5136211;27;19922;-71
2023/09/05 03:27:05;;;;;;;;;;;;;;;;;;5118365;27;19922;-72
2023/09/05 03:29:31;;;;;;;;;;;;;;;;;;5129842;27;19987;-71
2023/09/05 03:31:57;;;;;;;;;;;;;;;;;;5117135;27;19927;-72
2023/09/05 03:34:23;;;;;;;;;;;;;;;;;;5129833;27;19918;-71
2023/09/05 03:36:49;;;;;;;;;;;;;;;;;;5121313;27;19977;-71
2023/09/05 03:39:15;;;;;;;;;;;;;;;;;;5121490;27;20360;-71
2023/09/05 03:41:41;;;;;;;;;;;;;;;;;;5135750;27;20032;-71
2023/09/05 03:44:07;;;;;;;;;;;;;;;;;;5116440;27;19919;-71
2023/09/05 03:46:33;;;;;;;;;;;;;;;;;;5120763;27;20364;-71
2023/09/05 03:48:59;;;;;;;;;;;;;;;;;;5114054;27;19931;-71
2023/09/05 03:51:27;;;;;;;;;;;;;;;;;;5115825;28;19920;-71
2023/09/05 03:53:53;;;;;;;;;;;;;;;;;;5114836;28;20338;-74
2023/09/05 03:56:19;;;;;;;;;;;;;;;;;;5117382;27;20402;-71
2023/09/05 03:58:45;;;;;;;;;;;;;;;;;;5132728;27;19919;-71
2023/09/05 04:01:11;;;;;;;;;;;;;;;;;;5123378;28;19927;-71
2023/09/05 04:03:37;;;;;;;;;;;;;;;;;;5121015;27;19925;-71
2023/09/05 04:06:03;;;;;;;;;;;;;;;;;;5128272;27;19919;-71
2023/09/05 04:08:29;;;;;;;;;;;;;;;;;;5133946;27;19968;-71
2023/09/05 04:10:55;;;;;;;;;;;;;;;;;;5114811;28;19925;-73
2023/09/05 04:13:21;;;;;;;;;;;;;;;;;;5115543;27;20447;-71
2023/09/05 04:15:47;;;;;;;;;;;;;;;;;;5126422;28;20411;-71
2023/09/05 04:18:13;;;;;;;;;;;;;;;;;;5114242;28;19919;-71
2023/09/05 04:20:39;;;;;;;;;;;;;;;;;;5119071;27;19922;-71
2023/09/05 04:23:05;;;;;;;;;;;;;;;;;;5122859;28;19973;-71
2023/09/05 04:25:32;;;;;;;;;;;;;;;;;;5135304;27;20360;-71
2023/09/05 04:27:58;;;;;;;;;;;;;;;;;;5134288;27;20288;-74
2023/09/05 04:30:24;;;;;;;;;;;;;;;;;;5134038;27;19919;-71
2023/09/05 04:32:50;;;;;;;;;;;;;;;;;;5135460;27;20291;-70
2023/09/05 04:35:16;;;;;;;;;;;;;;;;;;5137048;27;20172;-71
2023/09/05 04:37:42;;;;;;;;;;;;;;;;;;5131598;27;20005;-71
2023/09/05 04:40:08;;;;;;;;;;;;;;;;;;5138639;27;20367;-71
2023/09/05 04:42:34;;;;;;;;;;;;;;;;;;5127256;27;20017;-71
2023/09/05 04:45:00;;;;;;;;;;;;;;;;;;5134671;27;19925;-71
2023/09/05 04:47:26;;;;;;;;;;;;;;;;;;5120893;27;19918;-71
2023/09/05 04:49:52;;;;;;;;;;;;;;;;;;5138076;27;19922;-72
2023/09/05 04:52:18;;;;;;;;;;;;;;;;;;5117357;27;20086;-71
2023/09/05 04:54:45;;;;;;;;;;;;;;;;;;5118540;27;19968;-71
2023/09/05 04:57:11;;;;;;;;;;;;;;;;;;5116407;27;19919;-71
2023/09/05 04:59:37;;;;;;;;;;;;;;;;;;5120689;27;19920;-71
2023/09/05 05:02:03;;;;;;;;;;;;;;;;;;5119894;27;19919;-71
2023/09/05 05:04:29;;;;;;;;;;;;;;;;;;5100958;27;19954;-71
2023/09/05 05:06:55;;;;;;;;;;;;;;;;;;5130341;27;19927;-71
2023/09/05 05:09:21;;;;;;;;;;;;;;;;;;5135306;27;20435;-71
2023/09/05 05:11:47;;;;;;;;;;;;;;;;;;5118020;27;20284;-71
2023/09/05 05:14:13;;;;;;;;;;;;;;;;;;5109764;27;19918;-71
2023/09/05 05:16:43;;;;;;;;;;;;;;;;;;5138687;27;19923;-71
2023/09/05 05:19:09;;;;;;;;;;;;;;;;;;5118699;27;19923;-71
2023/09/05 05:21:35;;;;;;;;;;;;;;;;;;5127572;27;20011;-72
2023/09/05 05:24:01;;;;;;;;;;;;;;;;;;5137364;27;19960;-74
2023/09/05 05:26:28;;;;;;;;;;;;;;;;;;5134688;27;19923;-71
2023/09/05 05:28:54;;;;;;;;;;;;;;;;;;5133697;27;20280;-71
2023/09/05 05:31:20;;;;;;;;;;;;;;;;;;5124886;27;19926;-71
2023/09/05 05:33:46;;;;;;;;;;;;;;;;;;5117069;27;19930;-70
2023/09/05 05:36:12;;;;;;;;;;;;;;;;;;5117041;27;19920;-70
2023/09/05 05:38:38;;;;;;;;;;;;;;;;;;5100242;27;20009;-70
2023/09/05 05:41:07;;;;;;;;;;;;;;;;;;5116960;27;19964;-71
2023/09/05 05:43:33;;;;;;;;;;;;;;;;;;5136356;27;19919;-71
2023/09/05 05:45:59;;;;;;;;;;;;;;;;;;5129426;27;20049;-71
2023/09/05 05:48:25;;;;;;;;;;;;;;;;;;5116834;27;19919;-72
2023/09/05 05:50:51;;;;;;;;;;;;;;;;;;5117559;27;20010;-71
2023/09/05 05:53:17;;;;;;;;;;;;;;;;;;5131368;27;20443;-71
2023/09/05 05:55:43;;;;;;;;;;;;;;;;;;5131799;27;20013;-70
2023/09/05 05:58:09;;;;;;;;;;;;;;;;;;5124689;27;19927;-71
2023/09/05 06:00:35;;;;;;;;;;;;;;;;;;5137620;27;19919;-71
2023/09/05 06:03:01;;;;;;;;;;;;;;;;;;5137906;27;20010;-71
2023/09/05 06:05:27;;;;;;;;;;;;;;;;;;5136857;27;19926;-71
2023/09/05 06:07:53;;;;;;;;;;;;;;;;;;5137614;27;19919;-71
2023/09/05 06:10:19;;;;;;;;;;;;;;;;;;5136972;27;19971;-71
2023/09/05 06:12:45;;;;;;;;;;;;;;;;;;5136913;27;20364;-71
2023/09/05 06:15:11;;;;;;;;;;;;;;;;;;5136522;27;19918;-71
2023/09/05 06:17:37;;;;;;;;;;;;;;;;;;5118872;27;19927;-71
2023/09/05 06:20:03;;;;;;;;;;;;;;;;;;5119244;27;19926;-71
2023/09/05 06:22:30;;;;;;;;;;;;;;;;;;5123045;27;19928;-71
2023/09/05 06:24:56;;;;;;;;;;;;;;;;;;5099732;27;20337;-71
2023/09/05 06:27:22;;;;;;;;;;;;;;;;;;5115559;27;20009;-72
2023/09/05 06:29:48;;;;;;;;;;;;;;;;;;5098471;27;19926;-72
2023/09/05 06:32:14;;;;;;;;;;;;;;;;;;5116119;27;19923;-71
2023/09/05 06:34:40;;;;;;;;;;;;;;;;;;5116093;27;19951;-70
2023/09/05 06:37:06;;;;;;;;;;;;;;;;;;5132081;27;19919;-75
2023/09/05 06:39:32;;;;;;;;;;;;;;;;;;5108151;27;19927;-71
2023/09/05 06:41:59;;;;;;;;;;;;;;;;;;5115939;27;19919;-71
2023/09/05 06:44:25;;;;;;;;;;;;;;;;;;5115776;27;20010;-71
2023/09/05 06:46:51;;;;;;;;;;;;;;;;;;5102877;27;19970;-70
2023/09/05 06:49:17;;;;;;;;;;;;;;;;;;5115092;27;19926;-71
2023/09/05 06:51:43;;;;;;;;;;;;;;;;;;5123106;27;20014;-71
2023/09/05 06:54:09;;;;;;;;;;;;;;;;;;5115508;27;19923;-76
2023/09/05 06:56:35;;;;;;;;;;;;;;;;;;5098617;27;19919;-72
2023/09/05 06:59:00;;;;;;;;;;;;;;;;;;5097747;27;19927;-71
2023/09/05 07:01:28;;;;;;;;;;;;;;;;;;5098409;27;19923;-71
2023/09/05 07:03:54;;;;;;;;;;;;;;;;;;5125768;27;19919;-71
2023/09/05 07:06:21;;;;;;;;;;;;;;;;;;5125493;27;19998;-71
2023/09/05 07:08:47;;;;;;;;;;;;;;;;;;5115828;27;19926;-72
2023/09/05 07:11:13;;;;;;;;;;;;;;;;;;5115173;27;20006;-74
2023/09/05 07:13:39;;;;;;;;;;;;;;;;;;5114677;27;20021;-72
2023/09/05 07:16:05;;;;;;;;;;;;;;;;;;5129685;27;19968;-72
2023/09/05 07:18:31;;;;;;;;;;;;;;;;;;5124876;27;20363;-72
2023/09/05 07:20:57;;;;;;;;;;;;;;;;;;5115632;27;19919;-74
2023/09/05 07:23:23;;;;;;;;;;;;;;;;;;5134916;27;19918;-72
2023/09/05 07:25:49;;;;;;;;;;;;;;;;;;5119099;27;19927;-72
2023/09/05 07:28:15;;;;;;;;;;;;;;;;;;5134120;27;20431;-72
2023/09/05 07:30:41;;;;;;;;;;;;;;;;;;5135914;27;20009;-72
2023/09/05 07:33:07;;;;;;;;;;;;;;;;;;5118855;27;19966;-72
2023/09/05 07:35:33;;;;;;;;;;;;;;;;;;5117423;27;20324;-67
2023/09/05 07:37:59;;;;;;;;;;;;;;;;;;5153622;27;20048;-68
2023/09/05 07:40:26;;;;;;;;;;;;;;;;;;5135512;27;19926;-69
2023/09/05 07:42:52;;;;;;;;;;;;;;;;;;5117994;27;19919;-69
2023/09/05 07:45:18;;;;;;;;;;;;;;;;;;5132449;27;19926;-70
2023/09/05 07:47:44;;;;;;;;;;;;;;;;;;5139799;27;19919;-72
2023/09/05 07:50:10;;;;;;;;;;;;;;;;;;5118213;27;19970;-68
2023/09/05 07:52:36;;;;;;;;;;;;;;;;;;5153745;27;19923;-65
2023/09/05 07:55:03;;;;;;;;;;;;;;;;;;5130198;27;19927;-71
2023/09/05 07:57:29;;;;;;;;;;;;;;;;;;5128052;27;19923;-71
2023/09/05 07:59:55;;;;;;;;;;;;;;;;;;5114987;28;20002;-71
2023/09/05 08:02:21;;;;;;;;;;;;;;;;;;5126282;27;19927;-71
2023/09/05 08:04:47;;;;;;;;;;;;;;;;;;5129847;27;19922;-71
2023/09/05 08:07:13;;;;;;;;;;;;;;;;;;5116594;27;20365;-74
2023/09/05 08:09:39;;;;;;;;;;;;;;;;;;5118328;27;19967;-74
2023/09/05 08:12:05;;;;;;;;;;;;;;;;;;5125631;27;19954;-74
2023/09/05 08:14:31;;;;;;;;;;;;;;;;;;5145318;27;19919;-73
2023/09/05 08:16:57;;;;;;;;;;;;;;;;;;5116124;27;20303;-73
2023/09/05 08:19:23;;;;;;;;;;;;;;;;;;5111812;27;19928;-73
2023/09/05 08:21:49;;;;;;;;;;;;;;;;;;5128776;27;20071;-73
2023/09/05 08:24:15;;;;;;;;;;;;;;;;;;5136909;27;19922;-78
2023/09/05 08:26:41;;;;;;;;;;;;;;;;;;5125218;27;19922;-73
2023/09/05 08:29:07;;;;;;;;;;;;;;;;;;5134354;27;19920;-73
2023/09/05 08:31:33;;;;;;;;;;;;;;;;;;5122118;27;19919;-73
2023/09/05 08:33:59;;;;;;;;;;;;;;;;;;5111948;27;20388;-73
2023/09/05 08:36:25;;;;;;;;;;;;;;;;;;5138779;27;20352;-74
2023/09/05 08:38:50;;;;;;;;;;;;;;;;;;5118436;27;20283;-72
2023/09/05 08:41:17;;;;;;;;;;;;;;;;;;5135852;27;19954;-78
2023/09/05 08:43:43;;;;;;;;;;;;;;;;;;5121710;27;19973;-73
2023/09/05 08:46:09;;;;;;;;;;;;;;;;;;5122625;27;19926;-77
2023/09/05 08:48:35;;;;;;;;;;;;;;;;;;5116955;27;19979;-73
2023/09/05 08:51:01;;;;;;;;;;;;;;;;;;5125973;27;19919;-73
2023/09/05 08:53:27;;;;;;;;;;;;;;;;;;5129430;27;20006;-73
2023/09/05 08:55:52;;;;;;;;;;;;;;;;;;5125976;27;19927;-73
2023/09/05 08:58:20;;;;;;;;;;;;;;;;;;5099639;27;19927;-78
2023/09/05 09:00:46;;;;;;;;;;;;;;;;;;5117717;27;19923;-74
2023/09/05 09:03:12;;;;;;;;;;;;;;;;;;5130159;27;19918;-73
2023/09/05 09:05:38;;;;;;;;;;;;;;;;;;5137454;27;19919;-73
2023/09/05 09:08:04;;;;;;;;;;;;;;;;;;5129093;27;19953;-73
2023/09/05 09:10:30;;;;;;;;;;;;;;;;;;5126928;27;20004;-70
2023/09/05 09:12:56;;;;;;;;;;;;;;;;;;5125448;27;19919;-74
2023/09/05 09:15:22;;;;;;;;;;;;;;;;;;5118192;27;19919;-74
2023/09/05 09:17:48;;;;;;;;;;;;;;;;;;5109246;27;20264;-74
2023/09/05 09:20:14;;;;;;;;;;;;;;;;;;5117338;27;19923;-73
2023/09/05 09:22:40;;;;;;;;;;;;;;;;;;5104206;27;19922;-74
2023/09/05 09:25:10;;;;;;;;;;;;;;;;;;5116842;27;19919;-73
2023/09/05 09:27:36;;;;;;;;;;;;;;;;;;5100410;27;20353;-72
2023/09/05 09:30:02;;;;;;;;;;;;;;;;;;5118625;27;19945;-73
2023/09/05 09:32:28;;;;;;;;;;;;;;;;;;5136138;27;19919;-73
2023/09/05 09:34:54;;;;;;;;;;;;;;;;;;5119603;27;20391;-73
2023/09/05 09:37:20;;;;;;;;;;;;;;;;;;5119233;27;19923;-76
2023/09/05 09:39:46;;;;;;;;;;;;;;;;;;5131330;28;19919;-72
2023/09/05 09:42:12;;;;;;;;;;;;;;;;;;5101941;27;19919;-72
2023/09/05 09:44:38;;;;;;;;;;;;;;;;;;5134804;27;19919;-72
2023/09/05 09:47:04;;;;;;;;;;;;;;;;;;5134842;27;20013;-74
2023/09/05 09:49:30;;;;;;;;;;;;;;;;;;5118622;27;20551;-74
2023/09/05 09:51:56;;;;;;;;;;;;;;;;;;5121152;28;19919;-74
2023/09/05 09:54:22;;;;;;;;;;;;;;;;;;5115951;28;20041;-76
2023/09/05 09:56:48;;;;;;;;;;;;;;;;;;5115498;28;20034;-74
2023/09/05 09:59:14;;;;;;;;;;;;;;;;;;5101756;27;19965;-74
2023/09/05 10:01:40;;;;;;;;;;;;;;;;;;5117110;27;19925;-74
2023/09/05 10:04:06;;;;;;;;;;;;;;;;;;5102967;28;19919;-74
2023/09/05 10:06:32;;;;;;;;;;;;;;;;;;5114256;28;20378;-74
2023/09/05 10:08:58;;;;;;;;;;;;;;;;;;5117804;27;19985;-73
2023/09/05 10:11:24;;;;;;;;;;;;;;;;;;5107972;28;19919;-75
2023/09/05 10:13:50;;;;;;;;;;;;;;;;;;5097629;28;19963;-72
2023/09/05 10:16:16;;;;;;;;;;;;;;;;;;5115707;28;19919;-75
2023/09/05 10:18:43;;;;;;;;;;;;;;;;;;5111029;27;19918;-73
2023/09/05 10:21:09;;;;;;;;;;;;;;;;;;5131964;27;20371;-74
2023/09/05 10:23:35;;;;;;;;;;;;;;;;;;5114558;28;20010;-73
2023/09/05 10:26:03;;;;;;;;;;;;;;;;;;5102188;27;19926;-74
2023/09/05 10:28:29;;;;;;;;;;;;;;;;;;5095039;27;1102046;-73
2023/09/05 10:30:55;;;;;;;;;;;;;;;;;;5119673;27;19949;-74
2023/09/05 10:33:21;;;;;;;;;;;;;;;;;;5133138;27;19930;-73
2023/09/05 10:35:47;;;;;;;;;;;;;;;;;;5130377;27;19919;-73
2023/09/05 10:38:14;;;;;;;;;;;;;;;;;;5115951;27;20014;-73
2023/09/05 10:40:40;;;;;;;;;;;;;;;;;;5113052;27;19972;-74
2023/09/05 10:43:06;;;;;;;;;;;;;;;;;;5118558;27;19919;-73
2023/09/05 10:45:32;;;;;;;;;;;;;;;;;;5135019;27;19926;-73
2023/09/05 10:47:58;;;;;;;;;;;;;;;;;;5135965;27;19918;-74
2023/09/05 10:50:25;;;;;;;;;;;;;;;;;;5118248;27;19919;-73
2023/09/05 10:52:50;;;;;;;;;;;;;;;;;;5131455;27;19973;-74
2023/09/05 10:55:18;;;;;;;;;;;;;;;;;;5134083;27;19966;-75
2023/09/05 10:57:47;;;;;;;;;;;;;;;;;;5115085;27;19926;-75
2023/09/05 11:00:17;;;;;;;;;;;;;;;;;;5131880;27;19961;-74
2023/09/05 11:02:43;;;;;;;;;;;;;;;;;;5117080;27;20018;-72
2023/09/05 11:05:10;;;;;;;;;;;;;;;;;;5116719;27;20041;-74
2023/09/05 11:07:42;;;;;;;;;;;;;;;;;;5111940;27;19919;-73
2023/09/05 11:10:11;;;;;;;;;;;;;;;;;;5116909;27;19922;-73
2023/09/05 11:12:38;;;;;;;;;;;;;;;;;;5129572;27;19919;-71
2023/09/05 11:15:05;;;;;;;;;;;;;;;;;;5121903;27;19919;-74
2023/09/05 11:17:31;;;;;;;;;;;;;;;;;;5126545;27;20265;-75
2023/09/05 11:19:57;;;;;;;;;;;;;;;;;;5118915;27;19941;-75
2023/09/05 11:22:23;;;;;;;;;;;;;;;;;;5116805;27;20288;-75
2023/09/05 11:24:49;;;;;;;;;;;;;;;;;;5108660;27;19923;-75
2023/09/05 11:27:15;;;;;;;;;;;;;;;;;;5099431;28;19930;-79
2023/09/05 11:29:42;;;;;;;;;;;;;;;;;;5096111;27;19924;-75
2023/09/05 11:32:08;;;;;;;;;;;;;;;;;;5111619;27;19927;-75
2023/09/05 11:34:34;;;;;;;;;;;;;;;;;;5130731;27;19919;-75
2023/09/05 11:37:00;;;;;;;;;;;;;;;;;;5103844;27;19920;-75
2023/09/05 11:39:27;;;;;;;;;;;;;;;;;;5148912;27;19942;-75
2023/09/05 11:41:57;;;;;;;;;;;;;;;;;;5107708;27;20492;-76
2023/09/05 11:44:23;;;;;;;;;;;;;;;;;;5125847;27;20407;-75
2023/09/05 11:46:48;;;;;;;;;;;;;;;;;;5118729;27;20018;-75
2023/09/05 11:49:14;;;;;;;;;;;;;;;;;;5113971;27;19922;-76
2023/09/05 11:51:40;;;;;;;;;;;;;;;;;;5106461;27;19923;-76
2023/09/05 11:54:06;;;;;;;;;;;;;;;;;;5123030;27;20420;-76
2023/09/05 11:56:32;;;;;;;;;;;;;;;;;;5123883;27;20264;-78
2023/09/05 11:58:58;;;;;;;;;;;;;;;;;;5128940;27;19979;-76
2023/09/05 12:01:24;;;;;;;;;;;;;;;;;;5129333;27;19966;-76
2023/09/05 12:03:50;;;;;;;;;;;;;;;;;;5113135;28;19930;-76
2023/09/05 12:06:16;;;;;;;;;;;;;;;;;;5128762;27;20009;-76
2023/09/05 12:08:42;;;;;;;;;;;;;;;;;;5110949;27;19930;-77
2023/09/05 12:11:08;;;;;;;;;;;;;;;;;;5102478;27;20408;-76
2023/09/05 12:13:34;;;;;;;;;;;;;;;;;;5132399;27;19919;-78
2023/09/05 12:16:00;;;;;;;;;;;;;;;;;;5132363;27;20067;-74
2023/09/05 12:18:27;;;;;;;;;;;;;;;;;;5125929;27;20010;-77
2023/09/05 12:20:53;;;;;;;;;;;;;;;;;;5108835;27;20572;-76
2023/09/05 12:23:18;;;;;;;;;;;;;;;;;;5128291;27;20211;-75
2023/09/05 12:25:44;;;;;;;;;;;;;;;;;;5126537;27;19922;-73
2023/09/05 12:28:15;;;;;;;;;;;;;;;;;;5115436;28;19931;-74
2023/09/05 12:30:41;;;;;;;;;;;;;;;;;;5124348;27;19923;-77
2023/09/05 12:33:07;;;;;;;;;;;;;;;;;;5134525;27;19919;-76
2023/09/05 12:35:34;;;;;;;;;;;;;;;;;;5116123;27;20367;-76
2023/09/05 12:38:00;;;;;;;;;;;;;;;;;;5134149;27;19967;-75
2023/09/05 12:40:26;;;;;;;;;;;;;;;;;;5134806;27;20343;-76
2023/09/05 12:42:52;;;;;;;;;;;;;;;;;;5106571;28;20283;-76
2023/09/05 12:45:18;;;;;;;;;;;;;;;;;;5113748;28;19980;-76
2023/09/05 12:47:49;;;;;;;;;;;;;;;;;;5113692;28;19959;-76
2023/09/05 12:50:15;;;;;;;;;;;;;;;;;;5113759;28;19919;-76
2023/09/05 12:52:44;;;;;;;;;;;;;;;;;;5113475;28;19919;-76
2023/09/05 12:55:10;;;;;;;;;;;;;;;;;;5115715;27;20344;-76
2023/09/05 12:57:37;;;;;;;;;;;;;;;;;;5100410;27;20372;-76
2023/09/05 13:00:03;;;;;;;;;;;;;;;;;;5118231;27;19923;-75
2023/09/05 13:02:29;;;;;;;;;;;;;;;;;;5138112;27;20402;-76
2023/09/05 13:04:55;;;;;;;;;;;;;;;;;;5137400;27;20616;-75
2023/09/05 13:07:23;;;;;;;;;;;;;;;;;;5129179;27;19919;-76
2023/09/05 13:09:48;;;;;;;;;;;;;;;;;;5117854;27;19949;-75
2023/09/05 13:12:14;;;;;;;;;;;;;;;;;;5117585;27;19919;-75
2023/09/05 13:14:42;;;;;;;;;;;;;;;;;;5117372;27;19968;-77
2023/09/05 13:17:08;;;;;;;;;;;;;;;;;;5118164;27;19919;-75
2023/09/05 13:19:34;;;;;;;;;;;;;;;;;;5102683;27;20960;-74
2023/09/05 13:22:00;;;;;;;;;;;;;;;;;;5106991;27;20133;-75
2023/09/05 13:24:26;;;;;;;;;;;;;;;;;;5118786;27;19926;-75
2023/09/05 13:26:54;;;;;;;;;;;;;;;;;;5135442;27;19998;-75
2023/09/05 13:29:21;;;;;;;;;;;;;;;;;;5135022;27;19968;-75
2023/09/05 13:31:47;;;;;;;;;;;;;;;;;;5128525;27;19972;-75
2023/09/05 13:34:13;;;;;;;;;;;;;;;;;;5133385;27;19923;-75
2023/09/05 13:36:39;;;;;;;;;;;;;;;;;;5115600;27;19919;-74
2023/09/05 13:39:05;;;;;;;;;;;;;;;;;;5132451;27;20006;-75
2023/09/05 13:41:31;;;;;;;;;;;;;;;;;;5114591;27;19924;-75
2023/09/05 13:43:57;;;;;;;;;;;;;;;;;;5114231;27;19923;-76
2023/09/05 13:46:23;;;;;;;;;;;;;;;;;;5131549;27;19919;-75
2023/09/05 13:48:50;;;;;;;;;;;;;;;;;;5115134;27;19959;-76
2023/09/05 13:51:21;;;;;;;;;;;;;;;;;;5125800;27;19961;-76
2023/09/05 13:53:47;;;;;;;;;;;;;;;;;;5099879;28;19919;-76
2023/09/05 13:56:13;;;;;;;;;;;;;;;;;;5113705;27;20023;-77
2023/09/05 13:58:40;;;;;;;;;;;;;;;;;;5118875;27;19924;-77
2023/09/05 14:01:06;;;;;;;;;;;;;;;;;;5097498;27;19974;-77
2023/09/05 14:03:32;;;;;;;;;;;;;;;;;;5129367;27;19962;-77
2023/09/05 14:05:58;;;;;;;;;;;;;;;;;;5113344;28;19924;-77
2023/09/05 14:08:24;;;;;;;;;;;;;;;;;;5112525;28;19931;-77
2023/09/05 14:10:50;;;;;;;;;;;;;;;;;;5101838;27;19999;-77
2023/09/05 14:13:16;;;;;;;;;;;;;;;;;;5132431;27;20006;-77
2023/09/05 14:15:43;;;;;;;;;;;;;;;;;;5114909;27;19924;-77
2023/09/05 14:18:09;;;;;;;;;;;;;;;;;;5133464;27;19968;-77
2023/09/05 14:20:35;;;;;;;;;;;;;;;;;;5100237;27;20017;-77
2023/09/05 14:23:01;;;;;;;;;;;;;;;;;;5121892;27;19926;-77
2023/09/05 14:25:27;;;;;;;;;;;;;;;;;;5120142;27;19919;-77
2023/09/05 14:27:53;;;;;;;;;;;;;;;;;;5123761;27;19919;-77
2023/09/05 14:30:19;;;;;;;;;;;;;;;;;;5132709;27;20245;-77
2023/09/05 14:32:45;;;;;;;;;;;;;;;;;;5112952;28;20018;-77
2023/09/05 14:35:11;;;;;;;;;;;;;;;;;;5126504;27;19919;-77
2023/09/05 14:37:37;;;;;;;;;;;;;;;;;;5125335;27;19920;-77
2023/09/05 14:40:03;;;;;;;;;;;;;;;;;;5099496;27;20331;-76
2023/09/05 14:42:32;;;;;;;;;;;;;;;;;;5114890;27;19927;-77
2023/09/05 14:45:16;;;;;;;;;;;;;;;;;;5125372;27;20006;-78
2023/09/05 14:47:42;;;;;;;;;;;;;;;;;;5101734;27;20010;-78
2023/09/05 14:50:09;;;;;;;;;;;;;;;;;;5117262;27;19919;-78
2023/09/05 14:52:41;;;;;;;;;;;;;;;;;;5128700;27;19996;-77
2023/09/05 14:55:09;;;;;;;;;;;;;;;;;;5111437;27;19959;-76
2023/09/05 14:57:35;;;;;;;;;;;;;;;;;;5124547;27;20023;-76
2023/09/05 15:00:01;;;;;;;;;;;;;;;;;;5127507;27;20014;-78
2023/09/05 15:02:27;;;;;;;;;;;;;;;;;;5115440;27;19928;-75
2023/09/05 15:04:53;;;;;;;;;;;;;;;;;;5109162;27;20348;-75
2023/09/05 15:07:19;;;;;;;;;;;;;;;;;;5112523;27;19924;-75
2023/09/05 15:09:45;;;;;;;;;;;;;;;;;;5121439;27;19934;-76
2023/09/05 15:12:12;;;;;;;;;;;;;;;;;;5122095;27;19941;-77
2023/09/05 15:14:38;;;;;;;;;;;;;;;;;;5110640;27;19976;-76
2023/09/05 15:17:04;;;;;;;;;;;;;;;;;;5132365;27;19926;-76
2023/09/05 15:19:30;;;;;;;;;;;;;;;;;;5126185;27;20359;-74
2023/09/05 15:21:56;;;;;;;;;;;;;;;;;;5108848;28;19972;-74
2023/09/05 15:24:22;;;;;;;;;;;;;;;;;;5125735;27;19958;-75
2023/09/05 15:26:47;;;;;;;;;;;;;;;;;;5094741;28;19927;-74
2023/09/05 15:29:14;;;;;;;;;;;;;;;;;;5130979;27;19930;-75
2023/09/05 15:31:40;;;;;;;;;;;;;;;;;;5111193;28;19923;-74
2023/09/05 15:34:08;;;;;;;;;;;;;;;;;;5110938;27;20014;-76
2023/09/05 15:36:34;;;;;;;;;;;;;;;;;;5125759;27;20361;-76
2023/09/05 15:39:00;;;;;;;;;;;;;;;;;;5123133;27;19919;-75
2023/09/05 15:41:26;;;;;;;;;;;;;;;;;;5125241;27;19927;-75
2023/09/05 15:43:52;;;;;;;;;;;;;;;;;;5110649;28;20045;-75
2023/09/05 15:46:18;;;;;;;;;;;;;;;;;;5118412;27;19927;-75
2023/09/05 15:48:44;;;;;;;;;;;;;;;;;;5114057;27;19953;-76
2023/09/05 15:51:10;;;;;;;;;;;;;;;;;;5115987;28;19920;-76
2023/09/05 15:53:36;;;;;;;;;;;;;;;;;;5108654;28;20285;-76
2023/09/05 15:56:02;;;;;;;;;;;;;;;;;;5117899;28;20010;-76
2023/09/05 15:58:28;;;;;;;;;;;;;;;;;;5118832;28;19977;-76
2023/09/05 16:00:55;;;;;;;;;;;;;;;;;;5131553;28;19926;-77
2023/09/05 16:03:25;;;;;;;;;;;;;;;;;;5117474;28;19919;-79
2023/09/05 16:05:53;;;;;;;;;;;;;;;;;;5113841;28;19927;-79
2023/09/05 16:08:20;;;;;;;;;;;;;;;;;;5097067;28;20386;-78
2023/09/05 16:10:49;;;;;;;;;;;;;;;;;;5128300;28;20233;-78
2023/09/05 16:13:15;;;;;;;;;;;;;;;;;;5122313;28;20264;-78
2023/09/05 16:15:41;;;;;;;;;;;;;;;;;;5128827;28;19946;-78
2023/09/05 16:18:07;;;;;;;;;;;;;;;;;;5131701;28;20564;-78
2023/09/05 16:20:33;;;;;;;;;;;;;;;;;;5110451;28;19927;-77
2023/09/05 16:22:58;;;;;;;;;;;;;;;;;;5131083;28;19919;-79
2023/09/05 16:25:24;;;;;;;;;;;;;;;;;;5111574;28;20353;-80
2023/09/05 16:27:52;;;;;;;;;;;;;;;;;;5109931;28;20477;-81
2023/09/05 16:30:18;;;;;;;;;;;;;;;;;;5110960;27;19922;-79
2023/09/05 16:32:44;;;;;;;;;;;;;;;;;;5111539;27;19920;-80
2023/09/05 16:35:10;;;;;;;;;;;;;;;;;;5127418;27;19976;-80
2023/09/05 16:37:36;;;;;;;;;;;;;;;;;;5135812;27;19926;-81
2023/09/05 16:40:02;;;;;;;;;;;;;;;;;;5118823;27;19920;-80